logo
Rechercher aéroport 
image banner adimage banner adimage banner ad
image banner ad

FAMATA - Matatiele

Situé à , South Africa

ICAO - , IATA -

Données fournies par Airmate  

Information générale

Coordonnées: S30°19'19" E28°47'38"
Élévation : 4760 feet MSL.
 
Voir autres Aéroports à Kwazulu-Natal

Données opérationnelles

Special qualification required
Heure actuelle UTC:
Heure actuelle locale:
Météo à : - ( 0 km )
METAR: CYRV 180121Z AUTO 34010G17KT 290V350 9SM -RA BKN066 OVC080 11/04 A2989 RMK SLP132
Voir NOTAMs / SUP AIP / TFR affectant cet aéroport [VIEW]
Fréquences de communication: [VIEW]

Pistes:

Identifiant RWYQFULongueur (ft)Largeur (ft)SurfaceLDA (ft)
16328149ASPH
34183°328149ASPH

Coordonnées de l'aéroport

Adresse: South Africa

Vue satellite de FAMATA